createdAt,value
2023-01-28T00:08:44.315Z,6.93
2023-01-28T00:11:12.397Z,9.00
2023-01-28T00:13:39.116Z,8.52
2023-01-28T00:18:34.057Z,14.52
2023-01-28T00:21:01.630Z,15.95
2023-01-28T00:23:29.016Z,23.60
2023-01-28T00:28:24.037Z,19.30
2023-01-28T00:30:50.908Z,11.43
2023-01-28T00:40:34.825Z,16.17
2023-01-28T00:43:02.678Z,13.00
2023-01-28T00:45:29.357Z,15.10
2023-01-28T00:50:21.717Z,20.48
2023-01-28T00:52:48.553Z,16.38
2023-01-28T00:55:15.785Z,22.65
2023-01-28T00:57:42.599Z,23.55
2023-01-28T01:00:09.608Z,20.40
2023-01-28T01:07:43.385Z,23.75
2023-01-28T01:10:11.472Z,21.80
2023-01-28T01:12:38.940Z,18.67
2023-01-28T01:17:37.647Z,18.50
2023-01-28T01:20:08.138Z,19.33
2023-01-28T01:28:05.400Z,16.85
2023-01-28T01:30:32.023Z,15.40
2023-01-28T01:35:24.122Z,16.67
2023-01-28T01:37:50.829Z,16.35
2023-01-28T01:42:43.108Z,15.02
2023-01-28T01:47:52.252Z,14.52
2023-01-28T01:50:26.101Z,14.63
2023-01-28T01:52:55.085Z,12.50
2023-01-28T01:55:23.697Z,14.23
2023-01-28T02:00:17.159Z,12.60
2023-01-28T02:02:48.501Z,11.07
2023-01-28T02:07:43.278Z,9.07
2023-01-28T02:10:11.118Z,12.32
2023-01-28T02:22:50.371Z,10.80
2023-01-28T02:25:35.718Z,11.68
2023-01-28T02:30:37.604Z,13.15
2023-01-28T02:35:30.899Z,14.15
2023-01-28T02:38:00.644Z,15.50
2023-01-28T02:40:32.573Z,16.90
2023-01-28T02:42:59.655Z,15.18
2023-01-28T02:45:50.216Z,15.50
2023-01-28T02:48:18.456Z,14.90
2023-01-28T02:56:22.515Z,14.00
2023-01-28T02:58:54.372Z,14.57
2023-01-28T03:06:39.980Z,19.90
2023-01-28T03:09:23.092Z,14.50
2023-01-28T03:32:49.898Z,27.27
2023-01-28T03:35:36.787Z,19.63
2023-01-28T03:38:18.096Z,17.42
2023-01-28T03:45:41.809Z,15.20
2023-01-28T03:48:08.782Z,14.75
2023-01-28T03:50:35.824Z,14.57
2023-01-28T03:53:14.982Z,13.45
2023-01-28T03:58:14.186Z,13.20
2023-01-28T04:00:44.026Z,13.25
2023-01-28T04:05:47.312Z,13.55
2023-01-28T04:08:14.382Z,13.05
2023-01-28T04:18:32.740Z,11.95
2023-01-28T04:20:59.583Z,12.30
2023-01-28T04:23:26.738Z,10.95
2023-01-28T04:25:54.007Z,13.18
2023-01-28T04:28:22.568Z,19.02
2023-01-28T04:30:49.224Z,18.52
2023-01-28T04:33:34.891Z,14.57
2023-01-28T04:36:15.652Z,13.07
2023-01-28T04:38:42.297Z,14.57
2023-01-28T04:41:38.054Z,15.10
2023-01-28T04:44:13.890Z,15.75
2023-01-28T04:46:55.019Z,15.95
2023-01-28T04:51:47.171Z,17.77
2023-01-28T04:54:36.073Z,20.42
2023-01-28T04:57:04.222Z,19.40
2023-01-28T04:59:31.901Z,19.35
2023-01-28T05:01:58.692Z,16.83
2023-01-28T05:04:26.210Z,16.65
2023-01-28T05:06:52.850Z,22.23
2023-01-28T05:19:06.142Z,26.00
2023-01-28T05:21:36.623Z,21.77
2023-01-28T05:24:03.377Z,21.42
2023-01-28T05:26:30.346Z,24.27
2023-01-28T05:28:56.988Z,23.67
2023-01-28T05:36:15.462Z,22.48
2023-01-28T05:38:43.211Z,21.58
2023-01-28T05:41:09.849Z,20.15
2023-01-28T05:46:02.054Z,21.67
2023-01-28T05:48:51.040Z,19.60
2023-01-28T05:51:36.450Z,19.85
2023-01-28T05:54:03.168Z,19.65
2023-01-28T05:56:30.497Z,19.98
2023-01-28T05:58:57.141Z,20.38
2023-01-28T06:03:49.217Z,20.77
2023-01-28T06:06:16.146Z,20.02
2023-01-28T06:15:59.746Z,20.73
2023-01-28T06:18:45.010Z,20.55
2023-01-28T06:21:11.858Z,19.90
2023-01-28T06:23:38.677Z,21.08
2023-01-28T06:26:08.550Z,19.85
2023-01-28T06:33:26.147Z,19.52
2023-01-28T06:35:53.050Z,20.33
2023-01-28T06:38:19.906Z,21.00
2023-01-28T06:40:51.387Z,22.42
2023-01-28T06:43:18.388Z,22.58
2023-01-28T06:45:45.060Z,24.90
2023-01-28T06:48:13.039Z,25.73
2023-01-28T06:53:06.073Z,21.55
2023-01-28T06:55:32.842Z,21.77
2023-01-28T06:58:00.218Z,20.67
2023-01-28T07:00:26.973Z,19.17
2023-01-28T07:02:55.779Z,20.08
2023-01-28T07:05:22.626Z,20.02
2023-01-28T07:10:15.001Z,21.83
2023-01-28T07:12:41.918Z,20.77
2023-01-28T07:15:11.026Z,20.13
2023-01-28T07:25:03.516Z,19.98
2023-01-28T07:27:30.321Z,19.80
2023-01-28T07:29:57.057Z,19.88
2023-01-28T07:32:27.571Z,20.38
2023-01-28T07:34:54.230Z,21.67
2023-01-28T07:39:46.818Z,23.48
2023-01-28T07:42:13.843Z,21.98
2023-01-28T07:47:12.138Z,22.27
2023-01-28T07:49:41.757Z,24.50
2023-01-28T07:52:09.111Z,24.08
2023-01-28T07:54:35.808Z,25.60
2023-01-28T07:57:02.706Z,25.50
2023-01-28T07:59:29.388Z,25.30
2023-01-28T08:01:56.116Z,24.15
2023-01-28T08:04:22.904Z,24.30
2023-01-28T08:09:15.111Z,23.27
2023-01-28T08:11:42.552Z,24.20
2023-01-28T08:16:35.906Z,23.98
2023-01-28T08:19:02.920Z,22.92
2023-01-28T08:21:29.602Z,23.98
2023-01-28T08:23:57.069Z,23.85
2023-01-28T08:26:23.964Z,48.30
2023-01-28T08:33:41.504Z,51.40
2023-01-28T08:36:08.695Z,51.63
2023-01-28T08:38:35.420Z,48.50
2023-01-28T08:41:02.270Z,49.92
2023-01-28T08:48:20.247Z,34.38
2023-01-28T08:50:47.008Z,31.60
2023-01-28T08:55:44.185Z,29.90
2023-01-28T08:58:12.720Z,30.08
2023-01-28T09:00:39.434Z,29.73
2023-01-28T09:03:06.533Z,27.83
2023-01-28T09:05:34.473Z,27.63
2023-01-28T09:08:02.630Z,27.70
2023-01-28T09:12:54.761Z,25.17
2023-01-28T09:15:21.457Z,25.00
2023-01-28T09:22:39.412Z,24.17
2023-01-28T09:25:06.338Z,24.80
2023-01-28T09:27:33.059Z,23.65
2023-01-28T09:29:59.754Z,24.98
2023-01-28T09:32:26.433Z,23.67
2023-01-28T09:35:18.315Z,22.35
2023-01-28T09:37:45.311Z,24.35
2023-01-28T09:40:20.671Z,27.13
2023-01-28T09:45:40.881Z,27.45
2023-01-28T09:50:43.846Z,24.45
2023-01-28T09:53:17.246Z,25.75
2023-01-28T09:55:46.239Z,23.65
2023-01-28T09:58:18.555Z,23.30
2023-01-28T10:00:48.375Z,22.67
2023-01-28T10:08:36.331Z,17.27
2023-01-28T10:13:43.677Z,14.43
2023-01-28T10:19:05.278Z,16.48
2023-01-28T10:21:47.337Z,11.05
2023-01-28T10:24:31.914Z,11.75
2023-01-28T10:34:20.110Z,11.32
2023-01-28T10:36:48.311Z,13.40
2023-01-28T10:39:16.081Z,14.55
2023-01-28T10:49:34.468Z,13.45
2023-01-28T10:52:10.844Z,14.02
2023-01-28T10:57:04.331Z,12.27
2023-01-28T10:59:36.923Z,12.73
2023-01-28T11:14:52.453Z,11.65
2023-01-28T11:17:20.412Z,13.25
2023-01-28T11:30:40.562Z,13.88
2023-01-28T11:33:24.334Z,15.00
2023-01-28T11:38:30.632Z,15.27
2023-01-28T11:40:58.388Z,15.43
2023-01-28T11:43:26.231Z,12.20
2023-01-28T11:56:43.447Z,13.60
2023-01-28T12:02:00.121Z,6.45
2023-01-28T12:04:44.606Z,6.93
2023-01-28T12:17:48.452Z,3.80
2023-01-28T12:25:55.261Z,3.47
2023-01-28T12:28:51.397Z,3.85
2023-01-28T12:31:30.397Z,3.67
2023-01-28T12:34:00.706Z,3.92
2023-01-28T12:36:30.348Z,2.40
2023-01-28T12:42:01.528Z,4.07
2023-01-28T12:44:54.629Z,4.05
2023-01-28T12:47:29.688Z,4.00
2023-01-28T12:50:03.745Z,3.90
2023-01-28T12:52:32.379Z,4.57
2023-01-28T12:55:13.347Z,3.70
2023-01-28T12:57:40.678Z,4.05
2023-01-28T13:00:24.722Z,4.00
2023-01-28T13:03:12.577Z,3.10
2023-01-28T13:05:46.606Z,1.63
2023-01-28T13:15:55.651Z,1.98
2023-01-28T13:18:51.663Z,2.97
2023-01-28T13:26:45.822Z,2.92
2023-01-28T13:29:15.409Z,3.20
2023-01-28T13:31:43.157Z,3.40
2023-01-28T13:49:14.016Z,7.97
2023-01-28T14:05:01.614Z,3.33
2023-01-28T14:07:39.777Z,4.23
2023-01-28T14:10:18.136Z,2.30
2023-01-28T14:17:59.029Z,1.60
2023-01-28T14:20:39.659Z,2.10
2023-01-28T14:28:33.893Z,2.63
2023-01-28T14:36:00.136Z,1.23
2023-01-28T14:38:28.436Z,2.15
2023-01-28T14:40:55.588Z,2.33
2023-01-28T14:43:23.657Z,1.75
2023-01-28T14:46:09.142Z,2.65
2023-01-28T14:54:13.470Z,3.40
2023-01-28T14:59:44.194Z,3.10
2023-01-28T15:07:25.018Z,3.90
2023-01-28T15:22:44.139Z,3.55
2023-01-28T15:37:50.604Z,3.35
2023-01-28T15:40:41.941Z,3.83
2023-01-28T15:43:18.885Z,3.25
2023-01-28T15:45:49.155Z,2.70
2023-01-28T15:48:16.436Z,2.88
2023-01-28T15:50:45.177Z,2.90
2023-01-28T15:58:34.238Z,1.67
2023-01-28T16:01:22.733Z,1.38
2023-01-28T16:11:34.145Z,1.52
2023-01-28T16:14:00.900Z,1.77
2023-01-28T16:26:25.576Z,1.67
2023-01-28T16:28:52.509Z,1.70
2023-01-28T16:31:21.696Z,1.50
2023-01-28T16:33:51.293Z,1.30
2023-01-28T16:36:19.564Z,0.95
2023-01-28T16:38:46.406Z,1.48
2023-01-28T16:41:22.099Z,2.65
2023-01-28T16:43:48.925Z,2.42
2023-01-28T16:46:15.632Z,2.15
2023-01-28T16:51:16.695Z,2.22
2023-01-28T16:53:43.632Z,3.65
2023-01-28T16:56:30.164Z,3.92
2023-01-28T16:59:01.931Z,5.30
2023-01-28T17:01:28.984Z,4.15
2023-01-28T17:03:56.690Z,3.33
2023-01-28T17:06:23.485Z,2.72
2023-01-28T17:08:50.160Z,3.05
2023-01-28T17:11:17.032Z,3.00
2023-01-28T17:13:44.807Z,4.07
2023-01-28T17:16:13.409Z,8.93
2023-01-28T17:18:40.123Z,6.40
2023-01-28T17:21:07.613Z,7.43
2023-01-28T17:23:35.514Z,10.70
2023-01-28T17:26:06.151Z,9.38
2023-01-28T17:28:33.122Z,11.48
2023-01-28T17:31:00.053Z,7.30
2023-01-28T17:33:26.752Z,5.57
2023-01-28T17:38:18.953Z,6.00
2023-01-28T17:40:48.762Z,6.57
2023-01-28T17:45:42.099Z,6.55
2023-01-28T17:48:08.830Z,6.13
2023-01-28T17:50:38.181Z,7.55
2023-01-28T17:53:04.924Z,4.55
2023-01-28T17:55:31.601Z,5.63
2023-01-28T17:57:59.006Z,6.55
2023-01-28T18:00:27.004Z,7.25
2023-01-28T18:02:53.657Z,6.43
2023-01-28T18:05:20.489Z,7.93
2023-01-28T18:07:47.590Z,18.00
2023-01-28T18:10:14.717Z,21.95
2023-01-28T18:15:07.276Z,28.83
2023-01-28T18:17:34.030Z,23.52
2023-01-28T18:22:26.364Z,27.15
2023-01-28T18:24:53.337Z,22.13
2023-01-28T18:29:46.597Z,11.52
2023-01-28T18:32:13.528Z,9.68
2023-01-28T18:39:40.033Z,9.40
2023-01-28T18:42:07.611Z,14.38
2023-01-28T18:44:34.742Z,14.30
2023-01-28T18:47:01.463Z,12.40
2023-01-28T18:49:28.211Z,9.77
2023-01-28T18:51:54.841Z,15.43
2023-01-28T18:54:22.167Z,11.15
2023-01-28T18:56:49.407Z,14.32
2023-01-28T18:59:16.189Z,12.05
2023-01-28T19:01:43.342Z,15.18
2023-01-28T19:04:13.332Z,13.68
2023-01-28T19:06:40.072Z,13.93
2023-01-28T19:09:07.611Z,12.52
2023-01-28T19:11:34.793Z,13.85
2023-01-28T19:14:01.834Z,14.00
2023-01-28T19:21:20.898Z,18.30
2023-01-28T19:26:14.599Z,17.65
2023-01-28T19:28:41.372Z,15.70
2023-01-28T19:36:01.259Z,7.55
2023-01-28T19:46:05.207Z,6.20
2023-01-28T19:48:32.614Z,6.75
2023-01-28T19:51:10.246Z,7.30
2023-01-28T19:58:29.460Z,8.73
2023-01-28T20:03:28.378Z,8.45
2023-01-28T20:05:58.730Z,8.45
2023-01-28T20:10:50.808Z,11.07
2023-01-28T20:13:17.517Z,12.40
2023-01-28T20:15:44.292Z,13.32
2023-01-28T20:18:11.010Z,13.65
2023-01-28T20:20:37.694Z,11.57
2023-01-28T20:27:56.803Z,14.70
2023-01-28T20:30:26.669Z,14.45
2023-01-28T20:37:44.557Z,15.60
2023-01-28T20:40:11.638Z,14.73
2023-01-28T20:45:03.891Z,15.32
2023-01-28T20:47:30.855Z,16.13
2023-01-28T20:49:57.492Z,15.55
2023-01-28T20:54:49.888Z,17.85
2023-01-28T20:57:21.655Z,18.60
2023-01-28T20:59:52.452Z,21.70
2023-01-28T21:02:31.167Z,22.23
2023-01-28T21:09:49.120Z,27.65
2023-01-28T21:14:41.313Z,31.40
2023-01-28T21:17:18.391Z,30.25
2023-01-28T21:22:10.635Z,30.33
2023-01-28T21:24:39.088Z,31.38
2023-01-28T21:29:31.199Z,35.08
2023-01-28T21:32:01.611Z,33.80
2023-01-28T21:36:54.867Z,30.40
2023-01-28T21:39:21.545Z,29.33
2023-01-28T21:41:48.220Z,21.15
2023-01-28T21:44:14.818Z,24.52
2023-01-28T21:46:41.576Z,25.10
2023-01-28T21:49:10.667Z,26.35
2023-01-28T21:51:40.495Z,26.27
2023-01-28T21:54:09.634Z,26.33
2023-01-28T21:56:36.331Z,24.00
2023-01-28T22:01:46.874Z,20.42
2023-01-28T22:04:14.032Z,26.67
2023-01-28T22:09:11.853Z,22.73
2023-01-28T22:11:39.324Z,21.17
2023-01-28T22:18:57.640Z,17.95
2023-01-28T22:21:24.394Z,17.98
2023-01-28T22:26:16.563Z,16.20
2023-01-28T22:28:43.283Z,17.27
2023-01-28T22:31:11.601Z,15.85
2023-01-28T22:33:38.428Z,22.23
2023-01-28T22:36:06.553Z,19.58
2023-01-28T22:43:32.243Z,18.58
2023-01-28T22:48:26.167Z,18.98
2023-01-28T22:50:53.020Z,19.95
2023-01-28T22:53:19.860Z,19.20
2023-01-28T22:55:50.335Z,20.38
2023-01-28T23:00:42.391Z,18.13
2023-01-28T23:03:09.997Z,15.95
2023-01-28T23:05:36.805Z,17.10
2023-01-28T23:08:12.113Z,16.92
2023-01-28T23:21:21.665Z,14.75
2023-01-28T23:24:07.081Z,16.35
2023-01-28T23:26:33.817Z,16.65
2023-01-28T23:32:05.323Z,16.00
2023-01-28T23:34:39.853Z,18.50
2023-01-28T23:37:08.011Z,18.02
2023-01-28T23:39:34.837Z,16.42
2023-01-28T23:44:36.301Z,16.02
2023-01-28T23:47:03.078Z,15.02
